< Typhoon 196617 1966 Season Typhoon 196619 >
Typhoon 196618 (CORA)
Second Miyakojima Typhoon
General InformationTrack Information on Google Maps || NewsDisaster Info.ResourceGoogle EarthGE AnimationAtom FeedGeoJSON
Detalied Best Track (Time Zone = UTC)
Year Month Day Hour Lat. Long. Pressure (hPa) Wind (kt) Class Image Chart
1966 8 28 18 17.0 147.0 1008 0 2 -- Chart
1966 8 29 00 16.5 147.5 1008 0 2 -- Chart
1966 8 29 06 15.5 147.2 1003 0 2 -- Chart
1966 8 29 12 14.4 146.5 1006 0 2 -- Chart
1966 8 29 18 13.5 145.5 1005 0 2 -- Chart
1966 8 30 00 13.0 144.0 1006 0 2 -- Chart
1966 8 30 06 12.6 142.7 1004 0 2 -- Chart
1966 8 30 12 12.7 142.0 1004 0 2 -- Chart
1966 8 30 18 12.9 141.5 1002 0 2 -- Chart
1966 8 31 00 13.3 141.0 998 0 9 -- Chart
1966 8 31 06 13.7 140.3 990 0 9 -- Chart
1966 8 31 12 14.5 139.3 985 0 9 -- Chart
1966 8 31 18 15.5 138.3 980 0 9 -- Chart
1966 9 1 00 16.3 137.4 970 0 9 -- Chart
1966 9 1 06 17.4 136.5 960 0 9 -- Chart
1966 9 1 12 18.5 135.5 945 0 9 -- Chart
1966 9 1 18 19.6 134.9 930 0 9 -- Chart
1966 9 2 00 20.4 134.4 925 0 9 -- Chart
1966 9 2 06 21.3 133.4 925 0 9 -- Chart
1966 9 2 12 22.0 132.5 930 0 9 -- Chart
1966 9 2 18 22.6 131.7 935 0 9 -- Chart
1966 9 3 00 23.0 130.9 938 0 9 -- Chart
1966 9 3 06 23.3 130.1 933 0 9 -- Chart
1966 9 3 12 23.7 129.3 933 0 9 -- Chart
1966 9 3 18 23.8 128.4 928 0 9 -- Chart
1966 9 4 00 23.8 127.5 924 0 9 -- Chart
1966 9 4 06 23.9 127.0 920 0 9 -- Chart
1966 9 4 12 24.0 126.4 920 0 9 -- Chart
1966 9 4 18 24.4 125.6 920 0 9 -- Chart
1966 9 5 00 24.7 125.2 918 0 9 -- Chart
1966 9 5 06 24.8 124.9 920 0 9 -- Chart
1966 9 5 12 25.0 124.5 925 0 9 -- Chart
1966 9 5 18 25.3 123.8 932 0 9 -- Chart
1966 9 6 00 25.5 123.3 936 0 9 -- Chart
1966 9 6 06 25.8 122.6 936 0 9 -- Chart
1966 9 6 12 26.2 121.8 936 0 9 -- Chart
1966 9 6 18 26.5 121.0 945 0 9 -- Chart
1966 9 7 00 27.0 120.0 980 0 9 -- Chart
1966 9 7 06 27.5 119.5 988 0 9 -- Chart
1966 9 7 12 29.0 119.2 990 0 2 -- Chart
1966 9 7 18 30.0 120.0 996 0 2 -- Chart
1966 9 8 00 32.0 121.0 1000 0 6 -- Chart
1966 9 8 06 33.5 121.9 998 0 6 -- Chart
1966 9 8 12 35.0 123.0 998 0 6 -- Chart
1966 9 8 18 35.7 124.5 1000 0 6 -- Chart
1966 9 9 00 36.0 125.5 1000 0 6 -- Chart
1966 9 9 06 36.3 126.5 999 0 6 -- Chart
1966 9 9 12 36.7 127.3 1001 0 6 -- Chart
Japan Meteorological Agency Best Track Data | Correction Date : 1990-10-17
< Typhoon 196617 1966 Season Typhoon 196619 >

Help